sensor_id;sensor_type;location;lat;lon;timestamp;P1;durP1;ratioP1;P2;durP2;ratioP2
69220;SDS011;56331;51.992;20.910;2022-10-16T00:00:42;9.55;;;7.10;;
69220;SDS011;56331;51.992;20.910;2022-10-16T00:03:11;10.48;;;7.60;;
69220;SDS011;56331;51.992;20.910;2022-10-16T00:05:41;10.13;;;7.45;;
69220;SDS011;56331;51.992;20.910;2022-10-16T00:08:10;11.20;;;7.85;;
69220;SDS011;56331;51.992;20.910;2022-10-16T00:10:37;10.55;;;7.97;;
69220;SDS011;56331;51.992;20.910;2022-10-16T00:13:04;10.10;;;7.25;;
69220;SDS011;56331;51.992;20.910;2022-10-16T00:15:33;9.55;;;7.40;;
69220;SDS011;56331;51.992;20.910;2022-10-16T00:18:02;9.80;;;7.07;;
69220;SDS011;56331;51.992;20.910;2022-10-16T00:20:29;9.30;;;7.37;;
69220;SDS011;56331;51.992;20.910;2022-10-16T00:22:57;9.60;;;7.42;;
69220;SDS011;56331;51.992;20.910;2022-10-16T00:25:24;9.10;;;7.50;;
69220;SDS011;56331;51.992;20.910;2022-10-16T00:27:50;11.00;;;7.83;;
69220;SDS011;56331;51.992;20.910;2022-10-16T00:30:17;10.40;;;7.25;;
69220;SDS011;56331;51.992;20.910;2022-10-16T00:32:43;9.50;;;7.25;;
69220;SDS011;56331;51.992;20.910;2022-10-16T00:35:09;9.45;;;7.08;;
69220;SDS011;56331;51.992;20.910;2022-10-16T00:37:36;9.15;;;7.00;;
69220;SDS011;56331;51.992;20.910;2022-10-16T00:40:03;8.90;;;6.80;;
69220;SDS011;56331;51.992;20.910;2022-10-16T00:42:29;8.78;;;6.78;;
69220;SDS011;56331;51.992;20.910;2022-10-16T00:44:56;10.13;;;7.53;;
69220;SDS011;56331;51.992;20.910;2022-10-16T00:47:34;9.65;;;7.33;;
69220;SDS011;56331;51.992;20.910;2022-10-16T00:52:50;9.73;;;7.55;;
69220;SDS011;56331;51.992;20.910;2022-10-16T00:55:18;9.53;;;7.33;;
69220;SDS011;56331;51.992;20.910;2022-10-16T00:57:44;10.53;;;7.08;;
69220;SDS011;56331;51.992;20.910;2022-10-16T01:00:13;9.98;;;7.35;;
69220;SDS011;56331;51.992;20.910;2022-10-16T01:02:41;8.43;;;6.80;;
69220;SDS011;56331;51.992;20.910;2022-10-16T01:05:08;9.98;;;7.50;;
69220;SDS011;56331;51.992;20.910;2022-10-16T01:07:46;9.88;;;7.08;;
69220;SDS011;56331;51.992;20.910;2022-10-16T01:13:12;8.98;;;6.87;;
69220;SDS011;56331;51.992;20.910;2022-10-16T01:18:27;10.03;;;7.05;;
69220;SDS011;56331;51.992;20.910;2022-10-16T01:23:32;8.80;;;6.80;;
69220;SDS011;56331;51.992;20.910;2022-10-16T01:31:16;9.28;;;7.33;;
69220;SDS011;56331;51.992;20.910;2022-10-16T01:33:48;8.20;;;6.73;;
69220;SDS011;56331;51.992;20.910;2022-10-16T01:36:36;8.93;;;6.95;;
69220;SDS011;56331;51.992;20.910;2022-10-16T01:41:34;10.10;;;6.75;;
69220;SDS011;56331;51.992;20.910;2022-10-16T01:49:01;9.25;;;6.72;;
69220;SDS011;56331;51.992;20.910;2022-10-16T01:51:29;9.13;;;7.28;;
69220;SDS011;56331;51.992;20.910;2022-10-16T01:53:57;9.78;;;7.03;;
69220;SDS011;56331;51.992;20.910;2022-10-16T01:56:25;8.15;;;6.37;;
69220;SDS011;56331;51.992;20.910;2022-10-16T01:58:56;9.10;;;7.00;;
69220;SDS011;56331;51.992;20.910;2022-10-16T02:01:28;8.55;;;6.95;;
69220;SDS011;56331;51.992;20.910;2022-10-16T02:03:58;9.73;;;7.40;;
69220;SDS011;56331;51.992;20.910;2022-10-16T02:06:27;9.03;;;6.87;;
69220;SDS011;56331;51.992;20.910;2022-10-16T02:08:55;9.95;;;7.35;;
69220;SDS011;56331;51.992;20.910;2022-10-16T02:11:21;8.28;;;6.62;;
69220;SDS011;56331;51.992;20.910;2022-10-16T02:13:48;9.48;;;6.87;;
69220;SDS011;56331;51.992;20.910;2022-10-16T02:16:18;10.60;;;7.60;;
69220;SDS011;56331;51.992;20.910;2022-10-16T02:18:44;10.05;;;7.35;;
69220;SDS011;56331;51.992;20.910;2022-10-16T02:21:14;11.50;;;7.53;;
69220;SDS011;56331;51.992;20.910;2022-10-16T02:26:35;9.28;;;6.95;;
69220;SDS011;56331;51.992;20.910;2022-10-16T02:29:04;10.28;;;7.12;;
69220;SDS011;56331;51.992;20.910;2022-10-16T02:31:31;9.75;;;7.22;;
69220;SDS011;56331;51.992;20.910;2022-10-16T02:36:28;10.13;;;7.45;;
69220;SDS011;56331;51.992;20.910;2022-10-16T02:38:56;9.00;;;7.05;;
69220;SDS011;56331;51.992;20.910;2022-10-16T02:41:25;8.60;;;6.58;;
69220;SDS011;56331;51.992;20.910;2022-10-16T02:43:52;9.85;;;7.20;;
69220;SDS011;56331;51.992;20.910;2022-10-16T02:46:21;9.40;;;7.05;;
69220;SDS011;56331;51.992;20.910;2022-10-16T02:48:48;10.28;;;7.33;;
69220;SDS011;56331;51.992;20.910;2022-10-16T02:51:14;9.80;;;7.00;;
69220;SDS011;56331;51.992;20.910;2022-10-16T02:53:40;9.15;;;6.87;;
69220;SDS011;56331;51.992;20.910;2022-10-16T02:56:07;9.73;;;7.65;;
69220;SDS011;56331;51.992;20.910;2022-10-16T02:58:33;8.88;;;7.17;;
69220;SDS011;56331;51.992;20.910;2022-10-16T03:01:00;9.60;;;7.03;;
69220;SDS011;56331;51.992;20.910;2022-10-16T03:03:26;8.88;;;6.70;;
69220;SDS011;56331;51.992;20.910;2022-10-16T03:05:52;9.40;;;7.17;;
69220;SDS011;56331;51.992;20.910;2022-10-16T03:08:19;9.98;;;7.40;;
69220;SDS011;56331;51.992;20.910;2022-10-16T03:10:47;9.93;;;7.05;;
69220;SDS011;56331;51.992;20.910;2022-10-16T03:13:13;9.25;;;6.97;;
69220;SDS011;56331;51.992;20.910;2022-10-16T03:15:39;10.13;;;7.40;;
69220;SDS011;56331;51.992;20.910;2022-10-16T03:18:06;9.93;;;7.47;;
69220;SDS011;56331;51.992;20.910;2022-10-16T03:20:32;8.98;;;6.90;;
69220;SDS011;56331;51.992;20.910;2022-10-16T03:22:58;9.60;;;7.12;;
69220;SDS011;56331;51.992;20.910;2022-10-16T03:25:25;9.60;;;7.35;;
69220;SDS011;56331;51.992;20.910;2022-10-16T03:27:51;9.83;;;7.03;;
69220;SDS011;56331;51.992;20.910;2022-10-16T03:30:18;8.68;;;6.65;;
69220;SDS011;56331;51.992;20.910;2022-10-16T03:32:45;10.25;;;7.62;;
69220;SDS011;56331;51.992;20.910;2022-10-16T03:35:12;10.30;;;7.40;;
69220;SDS011;56331;51.992;20.910;2022-10-16T03:37:39;9.50;;;7.25;;
69220;SDS011;56331;51.992;20.910;2022-10-16T03:40:05;10.70;;;6.95;;
69220;SDS011;56331;51.992;20.910;2022-10-16T03:42:33;8.70;;;6.70;;
69220;SDS011;56331;51.992;20.910;2022-10-16T03:44:59;9.88;;;7.22;;
69220;SDS011;56331;51.992;20.910;2022-10-16T03:47:25;9.45;;;7.12;;
69220;SDS011;56331;51.992;20.910;2022-10-16T03:49:52;9.53;;;6.80;;
69220;SDS011;56331;51.992;20.910;2022-10-16T03:52:18;10.15;;;7.55;;
69220;SDS011;56331;51.992;20.910;2022-10-16T03:54:45;9.45;;;7.42;;
69220;SDS011;56331;51.992;20.910;2022-10-16T03:57:11;9.55;;;7.08;;
69220;SDS011;56331;51.992;20.910;2022-10-16T03:59:38;9.95;;;6.97;;
69220;SDS011;56331;51.992;20.910;2022-10-16T04:02:04;10.30;;;7.85;;
69220;SDS011;56331;51.992;20.910;2022-10-16T04:04:30;9.18;;;6.85;;
69220;SDS011;56331;51.992;20.910;2022-10-16T04:06:57;9.43;;;6.92;;
69220;SDS011;56331;51.992;20.910;2022-10-16T04:09:23;8.98;;;6.85;;
69220;SDS011;56331;51.992;20.910;2022-10-16T04:11:49;8.93;;;6.92;;
69220;SDS011;56331;51.992;20.910;2022-10-16T04:14:16;9.63;;;6.92;;
69220;SDS011;56331;51.992;20.910;2022-10-16T04:16:42;9.28;;;6.80;;
69220;SDS011;56331;51.992;20.910;2022-10-16T04:19:09;8.90;;;6.95;;
69220;SDS011;56331;51.992;20.910;2022-10-16T04:21:36;8.23;;;6.42;;
69220;SDS011;56331;51.992;20.910;2022-10-16T04:24:02;10.05;;;7.12;;
69220;SDS011;56331;51.992;20.910;2022-10-16T04:26:29;9.18;;;6.72;;
69220;SDS011;56331;51.992;20.910;2022-10-16T04:28:56;8.53;;;6.28;;
69220;SDS011;56331;51.992;20.910;2022-10-16T04:31:22;8.65;;;6.80;;
69220;SDS011;56331;51.992;20.910;2022-10-16T04:33:48;9.93;;;7.05;;
69220;SDS011;56331;51.992;20.910;2022-10-16T04:36:15;9.50;;;6.97;;
69220;SDS011;56331;51.992;20.910;2022-10-16T04:38:41;8.75;;;6.47;;
69220;SDS011;56331;51.992;20.910;2022-10-16T04:41:08;9.00;;;6.70;;
69220;SDS011;56331;51.992;20.910;2022-10-16T04:43:34;10.28;;;7.03;;
69220;SDS011;56331;51.992;20.910;2022-10-16T04:46:01;10.28;;;6.65;;
69220;SDS011;56331;51.992;20.910;2022-10-16T04:48:27;9.88;;;7.25;;
69220;SDS011;56331;51.992;20.910;2022-10-16T04:50:54;8.18;;;6.67;;
69220;SDS011;56331;51.992;20.910;2022-10-16T04:53:20;10.55;;;7.28;;
69220;SDS011;56331;51.992;20.910;2022-10-16T04:55:46;9.40;;;6.60;;
69220;SDS011;56331;51.992;20.910;2022-10-16T04:58:13;9.45;;;6.75;;
69220;SDS011;56331;51.992;20.910;2022-10-16T05:00:39;9.50;;;7.03;;
69220;SDS011;56331;51.992;20.910;2022-10-16T05:03:05;9.78;;;7.28;;
69220;SDS011;56331;51.992;20.910;2022-10-16T05:05:34;9.38;;;7.12;;
69220;SDS011;56331;51.992;20.910;2022-10-16T05:08:01;8.88;;;6.62;;
69220;SDS011;56331;51.992;20.910;2022-10-16T05:10:28;9.83;;;6.70;;
69220;SDS011;56331;51.992;20.910;2022-10-16T05:12:54;8.00;;;6.58;;
69220;SDS011;56331;51.992;20.910;2022-10-16T05:15:21;8.98;;;6.67;;
69220;SDS011;56331;51.992;20.910;2022-10-16T05:17:51;8.38;;;6.22;;
69220;SDS011;56331;51.992;20.910;2022-10-16T05:20:20;8.23;;;6.33;;
69220;SDS011;56331;51.992;20.910;2022-10-16T05:22:48;8.38;;;6.53;;
69220;SDS011;56331;51.992;20.910;2022-10-16T05:25:14;8.43;;;6.80;;
69220;SDS011;56331;51.992;20.910;2022-10-16T05:27:41;8.30;;;6.55;;
69220;SDS011;56331;51.992;20.910;2022-10-16T05:30:07;9.13;;;6.78;;
69220;SDS011;56331;51.992;20.910;2022-10-16T05:32:35;8.03;;;6.55;;
69220;SDS011;56331;51.992;20.910;2022-10-16T05:35:01;8.25;;;6.92;;
69220;SDS011;56331;51.992;20.910;2022-10-16T05:37:27;8.13;;;6.37;;
69220;SDS011;56331;51.992;20.910;2022-10-16T05:39:53;7.80;;;6.05;;
69220;SDS011;56331;51.992;20.910;2022-10-16T05:42:20;7.60;;;6.05;;
69220;SDS011;56331;51.992;20.910;2022-10-16T05:44:46;8.25;;;6.80;;
69220;SDS011;56331;51.992;20.910;2022-10-16T05:47:13;9.73;;;6.10;;
69220;SDS011;56331;51.992;20.910;2022-10-16T05:49:41;8.13;;;6.33;;
69220;SDS011;56331;51.992;20.910;2022-10-16T05:52:07;7.22;;;6.00;;
69220;SDS011;56331;51.992;20.910;2022-10-16T05:54:34;8.53;;;6.45;;
69220;SDS011;56331;51.992;20.910;2022-10-16T05:57:00;8.18;;;6.10;;
69220;SDS011;56331;51.992;20.910;2022-10-16T05:59:27;8.38;;;6.45;;
69220;SDS011;56331;51.992;20.910;2022-10-16T06:01:54;8.38;;;6.33;;
69220;SDS011;56331;51.992;20.910;2022-10-16T06:04:20;9.30;;;6.78;;
69220;SDS011;56331;51.992;20.910;2022-10-16T06:06:46;9.25;;;6.80;;
69220;SDS011;56331;51.992;20.910;2022-10-16T06:09:13;8.08;;;6.20;;
69220;SDS011;56331;51.992;20.910;2022-10-16T06:11:39;9.35;;;6.85;;
69220;SDS011;56331;51.992;20.910;2022-10-16T06:14:06;8.80;;;6.37;;
69220;SDS011;56331;51.992;20.910;2022-10-16T06:16:34;9.10;;;7.08;;
69220;SDS011;56331;51.992;20.910;2022-10-16T06:19:01;7.90;;;6.17;;
69220;SDS011;56331;51.992;20.910;2022-10-16T06:21:29;8.20;;;6.12;;
69220;SDS011;56331;51.992;20.910;2022-10-16T06:23:57;10.70;;;6.90;;
69220;SDS011;56331;51.992;20.910;2022-10-16T06:26:29;9.48;;;6.97;;
69220;SDS011;56331;51.992;20.910;2022-10-16T06:28:54;7.62;;;6.50;;
69220;SDS011;56331;51.992;20.910;2022-10-16T06:31:21;8.38;;;6.28;;
69220;SDS011;56331;51.992;20.910;2022-10-16T06:33:52;8.38;;;6.35;;
69220;SDS011;56331;51.992;20.910;2022-10-16T06:36:17;7.72;;;6.25;;
69220;SDS011;56331;51.992;20.910;2022-10-16T06:38:44;9.00;;;6.67;;
69220;SDS011;56331;51.992;20.910;2022-10-16T06:41:15;8.65;;;6.50;;
69220;SDS011;56331;51.992;20.910;2022-10-16T06:43:43;8.25;;;6.55;;
69220;SDS011;56331;51.992;20.910;2022-10-16T06:46:11;8.65;;;6.70;;
69220;SDS011;56331;51.992;20.910;2022-10-16T06:48:39;8.85;;;6.12;;
69220;SDS011;56331;51.992;20.910;2022-10-16T06:51:06;8.53;;;6.28;;
69220;SDS011;56331;51.992;20.910;2022-10-16T06:53:40;7.83;;;6.30;;
69220;SDS011;56331;51.992;20.910;2022-10-16T06:56:16;8.23;;;6.70;;
69220;SDS011;56331;51.992;20.910;2022-10-16T06:58:41;8.28;;;6.42;;
69220;SDS011;56331;51.992;20.910;2022-10-16T07:01:08;9.15;;;6.50;;
69220;SDS011;56331;51.992;20.910;2022-10-16T07:03:36;8.28;;;6.65;;
69220;SDS011;56331;51.992;20.910;2022-10-16T07:06:09;8.15;;;6.30;;
69220;SDS011;56331;51.992;20.910;2022-10-16T07:08:38;7.78;;;6.12;;
69220;SDS011;56331;51.992;20.910;2022-10-16T07:11:03;8.47;;;6.80;;
69220;SDS011;56331;51.992;20.910;2022-10-16T07:13:38;7.90;;;6.17;;
69220;SDS011;56331;51.992;20.910;2022-10-16T07:16:20;8.20;;;6.53;;
69220;SDS011;56331;51.992;20.910;2022-10-16T07:18:45;8.88;;;6.12;;
69220;SDS011;56331;51.992;20.910;2022-10-16T07:21:17;7.62;;;6.42;;
69220;SDS011;56331;51.992;20.910;2022-10-16T07:23:52;9.05;;;6.67;;
69220;SDS011;56331;51.992;20.910;2022-10-16T07:26:19;8.15;;;5.92;;
69220;SDS011;56331;51.992;20.910;2022-10-16T07:28:46;9.40;;;6.50;;
69220;SDS011;56331;51.992;20.910;2022-10-16T07:31:14;7.97;;;5.70;;
69220;SDS011;56331;51.992;20.910;2022-10-16T07:33:41;8.98;;;5.95;;
69220;SDS011;56331;51.992;20.910;2022-10-16T07:36:10;7.17;;;5.85;;
69220;SDS011;56331;51.992;20.910;2022-10-16T07:38:37;8.95;;;6.17;;
69220;SDS011;56331;51.992;20.910;2022-10-16T07:41:05;9.10;;;6.58;;
69220;SDS011;56331;51.992;20.910;2022-10-16T07:43:33;8.05;;;5.85;;
69220;SDS011;56331;51.992;20.910;2022-10-16T07:45:59;8.68;;;6.35;;
69220;SDS011;56331;51.992;20.910;2022-10-16T07:48:27;8.00;;;5.85;;
69220;SDS011;56331;51.992;20.910;2022-10-16T07:50:58;8.38;;;6.25;;
69220;SDS011;56331;51.992;20.910;2022-10-16T07:53:27;8.73;;;6.47;;
69220;SDS011;56331;51.992;20.910;2022-10-16T07:56:01;8.63;;;5.78;;
69220;SDS011;56331;51.992;20.910;2022-10-16T07:58:29;9.25;;;6.12;;
69220;SDS011;56331;51.992;20.910;2022-10-16T08:00:56;8.85;;;6.53;;
69220;SDS011;56331;51.992;20.910;2022-10-16T08:03:23;8.35;;;6.25;;
69220;SDS011;56331;51.992;20.910;2022-10-16T08:05:50;9.60;;;6.22;;
69220;SDS011;56331;51.992;20.910;2022-10-16T08:08:18;7.87;;;6.17;;
69220;SDS011;56331;51.992;20.910;2022-10-16T08:10:45;10.35;;;6.00;;
69220;SDS011;56331;51.992;20.910;2022-10-16T08:13:12;7.37;;;5.87;;
69220;SDS011;56331;51.992;20.910;2022-10-16T08:15:40;7.95;;;5.83;;
69220;SDS011;56331;51.992;20.910;2022-10-16T08:18:10;8.20;;;6.62;;
69220;SDS011;56331;51.992;20.910;2022-10-16T08:20:38;8.38;;;5.55;;
69220;SDS011;56331;51.992;20.910;2022-10-16T08:23:05;8.48;;;6.53;;
69220;SDS011;56331;51.992;20.910;2022-10-16T08:25:34;7.15;;;5.60;;
69220;SDS011;56331;51.992;20.910;2022-10-16T08:28:05;8.13;;;5.75;;
69220;SDS011;56331;51.992;20.910;2022-10-16T08:30:33;8.70;;;6.15;;
69220;SDS011;56331;51.992;20.910;2022-10-16T08:33:00;8.95;;;6.08;;
69220;SDS011;56331;51.992;20.910;2022-10-16T08:35:26;8.00;;;6.20;;
69220;SDS011;56331;51.992;20.910;2022-10-16T08:37:53;8.60;;;6.15;;
69220;SDS011;56331;51.992;20.910;2022-10-16T08:40:28;9.43;;;6.20;;
69220;SDS011;56331;51.992;20.910;2022-10-16T08:43:08;10.60;;;5.95;;
69220;SDS011;56331;51.992;20.910;2022-10-16T08:48:32;8.33;;;6.10;;
69220;SDS011;56331;51.992;20.910;2022-10-16T08:51:03;7.28;;;5.60;;
69220;SDS011;56331;51.992;20.910;2022-10-16T08:53:31;8.70;;;5.97;;
69220;SDS011;56331;51.992;20.910;2022-10-16T08:56:18;12.07;;;6.45;;
69220;SDS011;56331;51.992;20.910;2022-10-16T08:58:45;7.17;;;5.60;;
69220;SDS011;56331;51.992;20.910;2022-10-16T09:01:13;7.78;;;5.50;;
69220;SDS011;56331;51.992;20.910;2022-10-16T09:06:46;7.45;;;5.60;;
69220;SDS011;56331;51.992;20.910;2022-10-16T09:12:02;8.85;;;5.62;;
69220;SDS011;56331;51.992;20.910;2022-10-16T09:23:14;6.83;;;5.40;;
69220;SDS011;56331;51.992;20.910;2022-10-16T09:25:46;7.90;;;6.17;;
69220;SDS011;56331;51.992;20.910;2022-10-16T09:28:14;8.53;;;5.45;;
69220;SDS011;56331;51.992;20.910;2022-10-16T09:30:41;7.37;;;5.60;;
69220;SDS011;56331;51.992;20.910;2022-10-16T09:33:09;8.83;;;5.78;;
69220;SDS011;56331;51.992;20.910;2022-10-16T09:35:40;8.18;;;5.90;;
69220;SDS011;56331;51.992;20.910;2022-10-16T09:38:09;8.05;;;6.00;;
69220;SDS011;56331;51.992;20.910;2022-10-16T09:40:47;7.72;;;5.58;;
69220;SDS011;56331;51.992;20.910;2022-10-16T09:46:00;8.28;;;6.08;;
69220;SDS011;56331;51.992;20.910;2022-10-16T09:48:44;10.18;;;6.05;;
69220;SDS011;56331;51.992;20.910;2022-10-16T09:51:18;9.98;;;6.45;;
69220;SDS011;56331;51.992;20.910;2022-10-16T09:56:11;8.15;;;6.45;;
69220;SDS011;56331;51.992;20.910;2022-10-16T09:58:43;8.10;;;6.13;;
69220;SDS011;56331;51.992;20.910;2022-10-16T10:01:12;7.60;;;6.00;;
69220;SDS011;56331;51.992;20.910;2022-10-16T10:03:41;8.60;;;5.65;;
69220;SDS011;56331;51.992;20.910;2022-10-16T10:06:22;9.03;;;6.53;;
69220;SDS011;56331;51.992;20.910;2022-10-16T10:14:06;9.53;;;6.08;;
69220;SDS011;56331;51.992;20.910;2022-10-16T10:16:38;8.63;;;6.22;;
69220;SDS011;56331;51.992;20.910;2022-10-16T10:19:09;9.45;;;5.95;;
69220;SDS011;56331;51.992;20.910;2022-10-16T10:21:41;7.58;;;5.78;;
69220;SDS011;56331;51.992;20.910;2022-10-16T10:24:11;7.75;;;5.80;;
69220;SDS011;56331;51.992;20.910;2022-10-16T10:26:44;7.65;;;6.30;;
69220;SDS011;56331;51.992;20.910;2022-10-16T10:35:00;7.70;;;5.53;;
69220;SDS011;56331;51.992;20.910;2022-10-16T10:43:13;9.05;;;6.30;;
69220;SDS011;56331;51.992;20.910;2022-10-16T10:45:44;8.40;;;5.90;;
69220;SDS011;56331;51.992;20.910;2022-10-16T10:50:52;9.30;;;6.10;;
69220;SDS011;56331;51.992;20.910;2022-10-16T10:53:36;8.13;;;6.10;;
69220;SDS011;56331;51.992;20.910;2022-10-16T10:59:19;11.40;;;5.55;;
69220;SDS011;56331;51.992;20.910;2022-10-16T11:02:03;9.48;;;6.10;;
69220;SDS011;56331;51.992;20.910;2022-10-16T11:07:36;7.08;;;5.58;;
69220;SDS011;56331;51.992;20.910;2022-10-16T11:10:24;10.43;;;5.55;;
69220;SDS011;56331;51.992;20.910;2022-10-16T11:12:44;8.93;;;6.22;;
69220;SDS011;56331;51.992;20.910;2022-10-16T11:17:58;7.55;;;5.60;;
69220;SDS011;56331;51.992;20.910;2022-10-16T11:23:06;7.08;;;5.58;;
69220;SDS011;56331;51.992;20.910;2022-10-16T11:25:35;8.30;;;5.47;;
69220;SDS011;56331;51.992;20.910;2022-10-16T11:28:11;8.73;;;6.12;;
69220;SDS011;56331;51.992;20.910;2022-10-16T11:31:14;6.83;;;4.95;;
69220;SDS011;56331;51.992;20.910;2022-10-16T11:39:03;8.75;;;5.83;;
69220;SDS011;56331;51.992;20.910;2022-10-16T11:44:33;6.93;;;5.30;;
69220;SDS011;56331;51.992;20.910;2022-10-16T11:50:15;6.83;;;5.55;;
69220;SDS011;56331;51.992;20.910;2022-10-16T11:53:01;7.00;;;5.42;;
69220;SDS011;56331;51.992;20.910;2022-10-16T11:55:32;6.03;;;5.15;;
69220;SDS011;56331;51.992;20.910;2022-10-16T11:58:02;7.85;;;5.33;;
69220;SDS011;56331;51.992;20.910;2022-10-16T12:00:40;6.95;;;5.17;;
69220;SDS011;56331;51.992;20.910;2022-10-16T12:05:52;7.08;;;5.50;;
69220;SDS011;56331;51.992;20.910;2022-10-16T12:08:20;6.85;;;4.92;;
69220;SDS011;56331;51.992;20.910;2022-10-16T12:10:47;10.43;;;5.42;;
69220;SDS011;56331;51.992;20.910;2022-10-16T12:16:06;6.40;;;5.05;;
69220;SDS011;56331;51.992;20.910;2022-10-16T12:18:34;7.12;;;5.33;;
69220;SDS011;56331;51.992;20.910;2022-10-16T12:21:00;6.83;;;5.10;;
69220;SDS011;56331;51.992;20.910;2022-10-16T12:23:33;5.40;;;4.65;;
69220;SDS011;56331;51.992;20.910;2022-10-16T12:26:05;8.53;;;5.55;;
69220;SDS011;56331;51.992;20.910;2022-10-16T12:28:32;6.28;;;5.17;;
69220;SDS011;56331;51.992;20.910;2022-10-16T12:31:03;6.30;;;5.00;;
69220;SDS011;56331;51.992;20.910;2022-10-16T12:36:16;5.75;;;4.90;;
69220;SDS011;56331;51.992;20.910;2022-10-16T12:38:47;6.05;;;5.15;;
69220;SDS011;56331;51.992;20.910;2022-10-16T12:41:28;5.90;;;4.78;;
69220;SDS011;56331;51.992;20.910;2022-10-16T12:43:56;6.90;;;5.37;;
69220;SDS011;56331;51.992;20.910;2022-10-16T12:46:38;7.00;;;5.20;;
69220;SDS011;56331;51.992;20.910;2022-10-16T12:51:56;7.35;;;5.10;;
69220;SDS011;56331;51.992;20.910;2022-10-16T12:54:28;6.60;;;5.42;;
69220;SDS011;56331;51.992;20.910;2022-10-16T13:24:11;5.87;;;4.60;;
69220;SDS011;56331;51.992;20.910;2022-10-16T13:26:52;7.00;;;5.42;;
69220;SDS011;56331;51.992;20.910;2022-10-16T13:29:16;6.03;;;4.30;;
69220;SDS011;56331;51.992;20.910;2022-10-16T13:31:44;6.95;;;4.62;;
69220;SDS011;56331;51.992;20.910;2022-10-16T13:34:18;5.75;;;4.90;;
69220;SDS011;56331;51.992;20.910;2022-10-16T13:36:48;6.62;;;5.03;;
69220;SDS011;56331;51.992;20.910;2022-10-16T13:42:13;5.80;;;4.53;;
69220;SDS011;56331;51.992;20.910;2022-10-16T13:44:40;5.62;;;4.70;;
69220;SDS011;56331;51.992;20.910;2022-10-16T13:47:16;6.70;;;4.62;;
69220;SDS011;56331;51.992;20.910;2022-10-16T13:49:58;5.42;;;4.37;;
69220;SDS011;56331;51.992;20.910;2022-10-16T13:52:26;7.78;;;5.03;;
69220;SDS011;56331;51.992;20.910;2022-10-16T13:54:53;5.22;;;4.65;;
69220;SDS011;56331;51.992;20.910;2022-10-16T13:57:21;5.75;;;4.70;;
69220;SDS011;56331;51.992;20.910;2022-10-16T13:59:48;5.57;;;4.30;;
69220;SDS011;56331;51.992;20.910;2022-10-16T14:02:17;8.60;;;4.22;;
69220;SDS011;56331;51.992;20.910;2022-10-16T14:04:45;5.78;;;4.47;;
69220;SDS011;56331;51.992;20.910;2022-10-16T14:07:14;5.33;;;4.42;;
69220;SDS011;56331;51.992;20.910;2022-10-16T14:09:47;5.37;;;4.37;;
69220;SDS011;56331;51.992;20.910;2022-10-16T14:14:44;6.90;;;4.80;;
69220;SDS011;56331;51.992;20.910;2022-10-16T14:17:19;5.58;;;4.20;;
69220;SDS011;56331;51.992;20.910;2022-10-16T14:19:48;6.20;;;5.05;;
69220;SDS011;56331;51.992;20.910;2022-10-16T14:25:00;6.33;;;4.67;;
69220;SDS011;56331;51.992;20.910;2022-10-16T14:27:31;5.17;;;4.55;;
69220;SDS011;56331;51.992;20.910;2022-10-16T14:30:16;7.15;;;4.60;;
69220;SDS011;56331;51.992;20.910;2022-10-16T14:33:01;7.78;;;4.83;;
69220;SDS011;56331;51.992;20.910;2022-10-16T14:35:31;6.03;;;4.78;;
69220;SDS011;56331;51.992;20.910;2022-10-16T14:38:00;6.03;;;4.55;;
69220;SDS011;56331;51.992;20.910;2022-10-16T14:40:32;6.10;;;5.10;;
69220;SDS011;56331;51.992;20.910;2022-10-16T14:43:01;7.20;;;5.33;;
69220;SDS011;56331;51.992;20.910;2022-10-16T14:45:30;6.72;;;4.83;;
69220;SDS011;56331;51.992;20.910;2022-10-16T14:47:59;7.10;;;4.70;;
69220;SDS011;56331;51.992;20.910;2022-10-16T14:50:28;5.45;;;4.35;;
69220;SDS011;56331;51.992;20.910;2022-10-16T14:52:54;8.08;;;4.97;;
69220;SDS011;56331;51.992;20.910;2022-10-16T14:55:21;6.50;;;4.95;;
69220;SDS011;56331;51.992;20.910;2022-10-16T14:57:47;7.45;;;4.95;;
69220;SDS011;56331;51.992;20.910;2022-10-16T15:02:47;6.58;;;5.05;;
69220;SDS011;56331;51.992;20.910;2022-10-16T15:07:47;8.60;;;4.42;;
69220;SDS011;56331;51.992;20.910;2022-10-16T15:10:19;6.85;;;4.90;;
69220;SDS011;56331;51.992;20.910;2022-10-16T15:12:47;6.10;;;4.90;;
69220;SDS011;56331;51.992;20.910;2022-10-16T15:15:34;6.55;;;4.90;;
69220;SDS011;56331;51.992;20.910;2022-10-16T15:18:11;7.20;;;5.08;;
69220;SDS011;56331;51.992;20.910;2022-10-16T15:20:39;8.58;;;5.30;;
69220;SDS011;56331;51.992;20.910;2022-10-16T15:23:16;7.10;;;5.37;;
69220;SDS011;56331;51.992;20.910;2022-10-16T15:25:44;6.42;;;5.20;;
69220;SDS011;56331;51.992;20.910;2022-10-16T15:28:12;7.08;;;5.15;;
69220;SDS011;56331;51.992;20.910;2022-10-16T15:30:39;9.55;;;5.45;;
69220;SDS011;56331;51.992;20.910;2022-10-16T15:33:10;6.55;;;5.08;;
69220;SDS011;56331;51.992;20.910;2022-10-16T15:35:39;5.92;;;4.75;;
69220;SDS011;56331;51.992;20.910;2022-10-16T15:38:05;6.00;;;4.85;;
69220;SDS011;56331;51.992;20.910;2022-10-16T15:40:31;7.92;;;5.08;;
69220;SDS011;56331;51.992;20.910;2022-10-16T15:42:58;5.45;;;4.40;;
69220;SDS011;56331;51.992;20.910;2022-10-16T15:45:24;6.65;;;5.25;;
69220;SDS011;56331;51.992;20.910;2022-10-16T15:47:50;5.60;;;4.62;;
69220;SDS011;56331;51.992;20.910;2022-10-16T15:50:16;7.62;;;5.10;;
69220;SDS011;56331;51.992;20.910;2022-10-16T15:52:43;6.30;;;5.20;;
69220;SDS011;56331;51.992;20.910;2022-10-16T15:55:11;6.80;;;5.10;;
69220;SDS011;56331;51.992;20.910;2022-10-16T15:57:39;5.60;;;4.78;;
69220;SDS011;56331;51.992;20.910;2022-10-16T16:00:09;7.05;;;4.50;;
69220;SDS011;56331;51.992;20.910;2022-10-16T16:02:37;6.67;;;4.97;;
69220;SDS011;56331;51.992;20.910;2022-10-16T16:05:05;7.10;;;4.75;;
69220;SDS011;56331;51.992;20.910;2022-10-16T16:07:34;6.20;;;4.28;;
69220;SDS011;56331;51.992;20.910;2022-10-16T16:10:02;8.03;;;4.50;;
69220;SDS011;56331;51.992;20.910;2022-10-16T16:12:29;6.40;;;5.15;;
69220;SDS011;56331;51.992;20.910;2022-10-16T16:14:55;5.95;;;4.80;;
69220;SDS011;56331;51.992;20.910;2022-10-16T16:17:22;6.03;;;4.60;;
69220;SDS011;56331;51.992;20.910;2022-10-16T16:19:49;7.60;;;4.90;;
69220;SDS011;56331;51.992;20.910;2022-10-16T16:22:15;5.95;;;4.42;;
69220;SDS011;56331;51.992;20.910;2022-10-16T16:24:42;7.47;;;5.00;;
69220;SDS011;56331;51.992;20.910;2022-10-16T16:27:08;8.15;;;5.15;;
69220;SDS011;56331;51.992;20.910;2022-10-16T16:29:35;8.03;;;4.83;;
69220;SDS011;56331;51.992;20.910;2022-10-16T16:32:02;6.10;;;4.75;;
69220;SDS011;56331;51.992;20.910;2022-10-16T16:34:29;6.10;;;5.00;;
69220;SDS011;56331;51.992;20.910;2022-10-16T16:36:56;7.70;;;4.70;;
69220;SDS011;56331;51.992;20.910;2022-10-16T16:39:22;8.45;;;4.65;;
69220;SDS011;56331;51.992;20.910;2022-10-16T16:41:49;6.87;;;4.85;;
69220;SDS011;56331;51.992;20.910;2022-10-16T16:44:15;7.80;;;5.45;;
69220;SDS011;56331;51.992;20.910;2022-10-16T16:46:43;5.58;;;4.50;;
69220;SDS011;56331;51.992;20.910;2022-10-16T16:49:11;8.00;;;5.30;;
69220;SDS011;56331;51.992;20.910;2022-10-16T16:51:38;6.42;;;4.90;;
69220;SDS011;56331;51.992;20.910;2022-10-16T16:54:05;6.03;;;4.87;;
69220;SDS011;56331;51.992;20.910;2022-10-16T16:56:33;6.92;;;5.00;;
69220;SDS011;56331;51.992;20.910;2022-10-16T16:58:59;5.97;;;4.83;;
69220;SDS011;56331;51.992;20.910;2022-10-16T17:01:26;8.98;;;5.62;;
69220;SDS011;56331;51.992;20.910;2022-10-16T17:03:53;7.40;;;5.70;;
69220;SDS011;56331;51.992;20.910;2022-10-16T17:06:23;6.72;;;5.25;;
69220;SDS011;56331;51.992;20.910;2022-10-16T17:08:50;12.53;;;5.17;;